KABR/ABR METAR and TAF weather

Enter ICAO airport designator
Station Type Date Time Source
KABR METAR 2019/05/19 20:31 UTC NOAA

KABR 192031Z AUTO 02013KT 5SM RA FEW013 SCT019 OVC030 07/04 A3001 RMK AO2 P0003 T00670039 $


Station Type Date Time Source
KABR Decoded METAR 2019/05/19 20:31 UTC NOAA

ABERDEEN REGIONAL AIRPORT, SD, United States (KABR) 45-27N 098-25W 400M
May 19, 2019 - 04:31 PM EDT / 2019.05.19 2031 UTC
Wind: from the NNE (020 degrees) at 15 MPH (13 KT):0
Visibility: 5 mile(s):0
Sky conditions: overcast
Weather: rain
Precipitation last hour: 0.03 inches
Temperature: 44.1 F (6.7 C)
Dew Point: 39.0 F (3.9 C)
Relative Humidity: 82%
Pressure (altimeter): 30.01 in. Hg (1016 hPa)
ob: KABR 192031Z AUTO 02013KT 5SM RA FEW013 SCT019 OVC030 07/04 A3001 RMK AO2 P0003 T00670039
cycle: 20

Station Type Date Time Source
KABR TAF 2019/05/19 20:03 UTC NOAA

TAF
AMD KABR 192000Z 1920/2018 02014KT P6SM -SHRA SCT015 OVC022
FM192300 03012KT P6SM VCSH BKN030
FM200000 03010KT P6SM SCT045
FM200200 VRB03KT P6SM SCT200
FM201700 11006KT P6SM FEW200

Example: see airport list